Time;durP1;ratioP1;P1;durP2;ratioP2;P2;SDS_P1;SDS_P2;PMS_P1;PMS_P2;Temp;Humidity;BMP_temperature;BMP_pressure;BME280_temperature;BME280_humidity;BME280_pressure;Samples;Min_cycle;Max_cycle;Signal;HPM_P1;HPM_P2
2022/05/04 00:01:52;;;;;;;0.75;0.75;;;15.90;59.30;;;;;;4172644;28;20044;-63
2022/05/04 00:04:20;;;;;;;0.70;0.70;;;15.90;59.30;;;;;;4204819;28;20048;-63
2022/05/04 00:06:46;;;;;;;0.00;0.00;;;15.90;59.30;;;;;;4203026;28;20043;-64
2022/05/04 00:09:12;;;;;;;0.52;0.52;;;15.90;59.40;;;;;;4208409;28;20067;-63
2022/05/04 00:11:40;;;;;;;0.00;0.00;;;15.90;60.20;;;;;;4180730;28;20079;-63
2022/05/04 00:14:14;;;;;;;0.00;0.00;;;15.80;59.40;;;;;;4190009;28;20062;-64
2022/05/04 00:16:44;;;;;;;0.00;0.00;;;15.90;59.40;;;;;;4169652;28;20072;-63
2022/05/04 00:19:08;;;;;;;0.00;0.00;;;15.80;59.40;;;;;;4177291;28;20079;-63
2022/05/04 00:21:43;;;;;;;0.10;0.10;;;15.80;59.40;;;;;;4213801;28;20093;-64
2022/05/04 00:24:14;;;;;;;0.00;0.00;;;15.80;59.40;;;;;;4172461;28;20059;-64
2022/05/04 00:26:43;;;;;;;0.05;0.05;;;15.80;59.40;;;;;;4202672;28;20043;-64
2022/05/04 00:29:11;;;;;;;0.70;0.70;;;15.80;59.40;;;;;;4176662;28;20047;-64
2022/05/04 00:31:42;;;;;;;0.00;0.00;;;15.80;59.40;;;;;;4203341;28;20052;-64
2022/05/04 00:34:12;;;;;;;0.00;0.00;;;15.80;59.40;;;;;;4191504;28;20048;-64
2022/05/04 00:36:44;;;;;;;0.03;0.03;;;15.80;59.40;;;;;;4175572;28;20502;-65
2022/05/04 00:39:14;;;;;;;0.00;0.00;;;15.80;59.40;;;;;;4164984;28;20718;-65
2022/05/04 00:41:41;;;;;;;0.13;0.13;;;15.80;59.50;;;;;;4194449;28;20460;-66
2022/05/04 00:44:11;;;;;;;0.00;0.00;;;15.80;59.50;;;;;;4208944;27;20096;-65
2022/05/04 00:46:44;;;;;;;0.00;0.00;;;15.80;59.50;;;;;;4167328;28;20048;-65
2022/05/04 00:49:09;;;;;;;0.00;0.00;;;15.80;59.50;;;;;;4196204;28;20055;-64
2022/05/04 00:51:38;;;;;;;0.00;0.00;;;15.70;59.50;;;;;;4185116;28;20048;-65
2022/05/04 00:54:07;;;;;;;0.00;0.00;;;15.80;59.70;;;;;;4206327;28;20048;-66
2022/05/04 00:56:39;;;;;;;0.00;0.00;;;15.80;59.60;;;;;;4188742;28;20052;-65
2022/05/04 00:59:07;;;;;;;0.00;0.00;;;15.80;59.70;;;;;;4194382;28;20482;-65
2022/05/04 01:01:39;;;;;;;0.22;0.22;;;15.80;59.70;;;;;;4190710;28;20052;-64
2022/05/04 01:04:06;;;;;;;0.00;0.00;;;15.80;59.70;;;;;;4186135;28;20146;-64
2022/05/04 01:06:30;;;;;;;0.00;0.00;;;15.70;59.80;;;;;;4193545;28;20040;-64
2022/05/04 01:09:11;;;;;;;0.00;0.00;;;15.70;59.80;;;;;;4178123;28;20044;-64
2022/05/04 01:11:38;;;;;;;0.00;0.00;;;15.80;59.90;;;;;;4182549;28;20142;-63
2022/05/04 01:14:07;;;;;;;0.00;0.00;;;15.70;59.90;;;;;;4198137;28;20098;-64
2022/05/04 01:16:43;;;;;;;0.00;0.00;;;15.80;59.90;;;;;;4192694;28;20063;-64
2022/05/04 01:19:12;;;;;;;0.00;0.00;;;15.70;59.90;;;;;;4212385;28;20043;-64
2022/05/04 01:21:44;;;;;;;0.00;0.00;;;15.70;59.90;;;;;;4176172;28;20056;-63
2022/05/04 01:24:13;;;;;;;0.32;0.32;;;15.70;59.90;;;;;;4183842;28;20202;-64
2022/05/04 01:26:43;;;;;;;0.32;0.32;;;15.70;60.00;;;;;;4183178;28;20064;-64
2022/05/04 01:29:15;;;;;;;0.00;0.00;;;15.70;59.90;;;;;;4191909;28;20040;-64
2022/05/04 01:31:41;;;;;;;0.00;0.00;;;15.80;60.00;;;;;;4179382;28;20056;-64
2022/05/04 01:34:12;;;;;;;0.00;0.00;;;15.70;60.00;;;;;;4163247;28;20040;-64
2022/05/04 01:36:44;;;;;;;0.00;0.00;;;15.70;60.00;;;;;;4151890;28;20106;-65
2022/05/04 01:39:18;;;;;;;0.73;0.73;;;15.70;60.00;;;;;;4154675;28;20044;-65
2022/05/04 01:42:03;;;;;;;0.00;0.00;;;15.70;60.00;;;;;;4143784;28;20140;-64
2022/05/04 01:44:38;;;;;;;0.00;0.00;;;15.70;60.10;;;;;;4177274;28;20499;-65
2022/05/04 01:47:11;;;;;;;0.00;0.00;;;15.60;60.20;;;;;;4163136;28;20738;-65
2022/05/04 01:49:41;;;;;;;0.20;0.20;;;15.70;60.20;;;;;;4181949;28;20068;-64
2022/05/04 01:52:15;;;;;;;0.00;0.00;;;15.70;60.20;;;;;;4197445;28;20047;-64
2022/05/04 01:54:49;;;;;;;0.00;0.00;;;15.70;60.30;;;;;;4162305;28;20421;-64
2022/05/04 01:57:27;;;;;;;0.00;0.00;;;15.60;60.20;;;;;;4184638;28;20101;-64
2022/05/04 01:59:54;;;;;;;0.00;0.00;;;15.70;60.30;;;;;;4188876;28;20051;-65
2022/05/04 02:02:27;;;;;;;0.00;0.00;;;15.70;60.30;;;;;;4198826;28;20051;-64
2022/05/04 02:05:05;;;;;;;0.00;0.00;;;15.70;60.30;;;;;;4173326;28;20519;-64
2022/05/04 02:07:31;;;;;;;0.00;0.00;;;15.60;60.40;;;;;;4202853;28;20445;-65
2022/05/04 02:10:05;;;;;;;0.00;0.00;;;15.60;60.50;;;;;;4186609;28;20468;-65
2022/05/04 02:12:34;;;;;;;0.00;0.00;;;15.60;60.50;;;;;;4169294;28;20105;-64
2022/05/04 02:15:21;;;;;;;;;;;15.60;60.50;;;;;;4210767;28;20044;-64
2022/05/04 02:17:48;;;;;;;0.00;0.00;;;15.60;60.50;;;;;;4192922;28;19924;-64
2022/05/04 02:20:19;;;;;;;0.00;0.00;;;15.60;60.50;;;;;;4198347;28;20062;-64
2022/05/04 02:22:53;;;;;;;0.00;0.00;;;15.60;60.60;;;;;;4186325;28;20055;-65
2022/05/04 02:25:24;;;;;;;0.00;0.00;;;15.60;60.70;;;;;;4169870;28;20106;-64
2022/05/04 02:28:00;;;;;;;0.00;0.00;;;15.60;60.70;;;;;;4153778;28;20497;-64
2022/05/04 02:30:31;;;;;;;0.00;0.00;;;15.60;60.80;;;;;;4197035;28;20502;-64
2022/05/04 02:32:58;;;;;;;0.00;0.00;;;15.60;60.90;;;;;;4185194;28;20069;-65
2022/05/04 02:38:14;;;;;;;1.35;0.40;;;15.60;60.90;;;;;;4163373;28;20040;-65
2022/05/04 02:40:47;;;;;;;2.20;0.90;;;15.50;60.80;;;;;;4198657;28;20048;-65
2022/05/04 02:43:11;;;;;;;0.00;0.00;;;15.60;60.90;;;;;;4174310;28;20137;-64
2022/05/04 02:45:38;;;;;;;0.00;0.00;;;15.60;60.90;;;;;;4190627;28;20051;-65
2022/05/04 02:48:08;;;;;;;1.08;0.65;;;15.50;60.80;;;;;;4183837;28;20092;-65
2022/05/04 02:50:46;;;;;;;0.00;0.00;;;15.50;60.80;;;;;;4188190;28;20048;-63
2022/05/04 02:53:22;;;;;;;0.03;0.03;;;15.50;60.80;;;;;;4173651;28;20067;-64
2022/05/04 02:55:52;;;;;;;3.33;1.27;;;15.50;60.80;;;;;;4174477;28;20056;-64
2022/05/04 02:58:18;;;;;;;0.00;0.00;;;15.50;61.70;;;;;;4199027;28;20048;-65
2022/05/04 03:00:49;;;;;;;0.00;0.00;;;15.50;60.80;;;;;;4174897;28;20055;-64
2022/05/04 03:03:24;;;;;;;0.00;0.00;;;15.50;60.80;;;;;;4189154;28;20070;-65
2022/05/04 03:05:50;;;;;;;0.20;0.20;;;15.50;60.80;;;;;;4159960;28;20504;-65
2022/05/04 03:08:20;;;;;;;0.00;0.00;;;15.50;60.80;;;;;;4159930;28;20131;-64
2022/05/04 03:13:40;;;;;;;0.00;0.00;;;15.50;60.80;;;;;;4192072;28;20101;-64
2022/05/04 03:16:05;;;;;;;0.00;0.00;;;15.50;60.80;;;;;;4195469;28;20052;-64
2022/05/04 03:18:35;;;;;;;0.00;0.00;;;15.50;60.90;;;;;;4192641;28;20105;-64
2022/05/04 03:21:18;;;;;;;0.00;0.00;;;15.50;60.90;;;;;;4185973;28;20066;-64
2022/05/04 03:23:43;;;;;;;0.00;0.00;;;15.50;60.90;;;;;;4170812;28;20058;-65
2022/05/04 03:26:13;;;;;;;0.00;0.00;;;15.50;60.90;;;;;;4171252;28;20063;-64
2022/05/04 03:28:39;;;;;;;0.00;0.00;;;15.50;61.00;;;;;;4176491;28;20055;-65
2022/05/04 03:31:05;;;;;;;0.10;0.10;;;15.50;61.00;;;;;;4206612;28;20519;-65
2022/05/04 03:33:41;;;;;;;0.00;0.00;;;15.50;61.00;;;;;;4183694;28;20131;-64
2022/05/04 03:36:17;;;;;;;0.00;0.00;;;15.50;61.10;;;;;;4190451;28;20055;-64
2022/05/04 03:38:51;;;;;;;0.00;0.00;;;15.50;61.10;;;;;;4187648;28;20044;-64
2022/05/04 03:41:19;;;;;;;0.00;0.00;;;15.50;61.10;;;;;;4189444;28;20115;-65
2022/05/04 03:43:43;;;;;;;0.00;0.00;;;15.50;61.20;;;;;;4196450;28;20068;-65
2022/05/04 03:46:18;;;;;;;0.00;0.00;;;15.50;61.20;;;;;;4203263;28;20097;-65
2022/05/04 03:48:49;;;;;;;0.00;0.00;;;15.40;61.10;;;;;;4158588;28;20056;-64
2022/05/04 03:51:22;;;;;;;0.00;0.00;;;15.40;61.10;;;;;;4207777;28;20082;-65
2022/05/04 03:53:51;;;;;;;0.00;0.00;;;15.40;61.10;;;;;;4203685;28;20059;-65
2022/05/04 03:56:24;;;;;;;0.00;0.00;;;15.40;61.20;;;;;;4187255;28;20040;-65
2022/05/04 03:58:58;;;;;;;0.22;0.22;;;15.40;61.20;;;;;;4198798;28;20120;-64
2022/05/04 04:01:32;;;;;;;0.00;0.00;;;15.40;61.20;;;;;;4206976;28;20138;-65
2022/05/04 04:04:01;;;;;;;0.03;0.03;;;15.40;61.20;;;;;;4186549;28;20067;-65
2022/05/04 04:06:30;;;;;;;0.00;0.00;;;15.40;61.30;;;;;;4188336;28;20044;-64
2022/05/04 04:08:54;;;;;;;0.00;0.00;;;15.40;61.30;;;;;;4143298;28;20048;-66
2022/05/04 04:11:26;;;;;;;0.00;0.00;;;15.40;61.30;;;;;;4179097;28;20052;-64
2022/05/04 04:13:59;;;;;;;0.00;0.00;;;15.40;61.30;;;;;;4181407;28;20047;-65
2022/05/04 04:16:49;;;;;;;0.00;0.00;;;15.40;61.40;;;;;;4180817;28;20131;-64
2022/05/04 04:19:19;;;;;;;0.05;0.05;;;15.40;61.60;;;;;;4171768;28;20056;-64
2022/05/04 04:21:51;;;;;;;0.10;0.10;;;15.40;61.50;;;;;;4192562;28;20071;-64
2022/05/04 04:24:21;;;;;;;0.00;0.00;;;15.40;61.50;;;;;;4190587;28;20055;-65
2022/05/04 04:26:56;;;;;;;0.00;0.00;;;15.40;61.40;;;;;;4195705;28;20041;-65
2022/05/04 04:29:23;;;;;;;0.00;0.00;;;15.40;61.40;;;;;;4186011;28;20060;-65
2022/05/04 04:31:55;;;;;;;0.10;0.10;;;15.40;61.40;;;;;;4179454;28;20506;-64
2022/05/04 04:34:37;;;;;;;0.00;0.00;;;15.40;61.40;;;;;;4200589;28;20481;-64
2022/05/04 04:37:05;;;;;;;0.00;0.00;;;15.40;61.40;;;;;;4167647;28;20045;-64
2022/05/04 04:39:31;;;;;;;0.00;0.00;;;15.40;61.40;;;;;;4184734;28;20056;-64
2022/05/04 04:42:07;;;;;;;0.17;0.17;;;15.40;61.40;;;;;;4210566;28;20052;-64
2022/05/04 04:44:33;;;;;;;0.00;0.00;;;15.40;61.40;;;;;;4196106;28;20052;-64
2022/05/04 04:46:58;;;;;;;0.13;0.13;;;15.40;61.50;;;;;;4193272;28;20517;-64
2022/05/04 04:49:27;;;;;;;0.00;0.00;;;15.40;61.50;;;;;;4186258;27;20181;-64
2022/05/04 04:51:55;;;;;;;0.00;0.00;;;15.40;61.50;;;;;;4196464;28;20032;-64
2022/05/04 04:54:30;;;;;;;0.20;0.20;;;15.40;61.40;;;;;;4212974;28;20128;-64
2022/05/04 04:57:09;;;;;;;0.00;0.00;;;15.40;61.50;;;;;;4184944;28;20048;-65
2022/05/04 04:59:37;;;;;;;0.00;0.00;;;15.40;61.50;;;;;;4157417;28;20044;-64
2022/05/04 05:02:03;;;;;;;0.00;0.00;;;15.40;61.60;;;;;;4209631;27;20059;-64
2022/05/04 05:04:32;;;;;;;0.00;0.00;;;15.40;61.60;;;;;;4196871;27;20048;-64
2022/05/04 05:06:58;;;;;;;0.10;0.10;;;15.40;61.60;;;;;;4176905;28;20051;-64
2022/05/04 05:09:31;;;;;;;0.00;0.00;;;15.40;61.80;;;;;;4191850;28;20498;-64
2022/05/04 05:12:00;;;;;;;0.00;0.00;;;15.40;62.10;;;;;;4176952;28;20040;-64
2022/05/04 05:17:18;;;;;;;0.00;0.00;;;15.40;62.50;;;;;;4193789;28;20040;-65
2022/05/04 05:19:48;;;;;;;0.00;0.00;;;15.50;62.30;;;;;;4180215;27;20090;-65
2022/05/04 05:22:16;;;;;;;0.00;0.00;;;15.40;62.10;;;;;;4198556;28;20089;-65
2022/05/04 05:24:42;;;;;;;0.00;0.00;;;15.50;62.20;;;;;;4183020;28;20044;-65
2022/05/04 05:27:13;;;;;;;0.00;0.00;;;15.40;62.10;;;;;;4204986;28;20059;-65
2022/05/04 05:29:45;;;;;;;0.00;0.00;;;15.40;63.00;;;;;;4187877;28;20051;-66
2022/05/04 05:32:12;;;;;;;2.17;0.45;;;15.40;62.10;;;;;;4206684;28;20098;-64
2022/05/04 05:34:41;;;;;;;1.13;1.13;;;15.40;62.30;;;;;;4192959;28;20044;-63
2022/05/04 05:37:07;;;;;;;0.00;0.00;;;15.40;62.60;;;;;;4154411;28;20083;-63
2022/05/04 05:39:39;;;;;;;0.00;0.00;;;15.40;62.60;;;;;;4176628;28;20544;-64
2022/05/04 05:42:09;;;;;;;0.00;0.00;;;15.40;62.60;;;;;;4186884;28;20519;-64
2022/05/04 05:44:39;;;;;;;0.00;0.00;;;15.40;62.60;;;;;;4182631;28;20068;-64
2022/05/04 05:47:08;;;;;;;0.00;0.00;;;15.40;62.50;;;;;;4192968;28;20055;-64
2022/05/04 05:49:35;;;;;;;0.00;0.00;;;15.40;62.40;;;;;;4176965;27;20048;-63
2022/05/04 05:52:00;;;;;;;0.00;0.00;;;15.40;62.30;;;;;;4213646;27;20048;-63
2022/05/04 05:54:27;;;;;;;0.00;0.00;;;15.40;62.20;;;;;;4215482;28;20055;-64
2022/05/04 05:56:56;;;;;;;0.00;0.00;;;15.50;62.20;;;;;;4203043;28;20505;-64
2022/05/04 05:59:23;;;;;;;0.10;0.10;;;15.40;62.10;;;;;;4201976;28;20135;-64
2022/05/04 06:01:51;;;;;;;0.00;0.00;;;15.40;62.00;;;;;;4204193;28;20194;-63
2022/05/04 06:04:18;;;;;;;0.00;0.00;;;15.40;62.00;;;;;;4193225;28;20044;-64
2022/05/04 06:06:51;;;;;;;0.00;0.00;;;15.40;62.00;;;;;;4171896;28;20036;-63
2022/05/04 06:09:24;;;;;;;0.00;0.00;;;15.40;62.00;;;;;;4162498;28;20045;-64
2022/05/04 06:11:53;;;;;;;0.00;0.00;;;15.40;62.00;;;;;;4172500;28;20063;-64
2022/05/04 06:14:23;;;;;;;0.00;0.00;;;15.40;62.00;;;;;;4131241;28;20111;-64
2022/05/04 06:16:50;;;;;;;0.00;0.00;;;15.40;61.40;;;;;;4170270;28;20056;-64
2022/05/04 06:19:22;;;;;;;0.00;0.00;;;15.40;61.60;;;;;;4160016;28;20045;-64
2022/05/04 06:21:51;;;;;;;0.00;0.00;;;15.40;61.30;;;;;;4169591;28;20102;-64
2022/05/04 06:24:20;;;;;;;0.00;0.00;;;15.40;61.60;;;;;;4172071;28;20072;-65
2022/05/04 06:26:47;;;;;;;0.00;0.00;;;15.40;61.60;;;;;;4150638;28;20530;-64
2022/05/04 06:29:11;;;;;;;0.00;0.00;;;15.40;61.30;;;;;;4141621;28;20045;-66
2022/05/04 06:34:20;;;;;;;1.80;1.65;;;15.30;61.50;;;;;;4154051;28;20048;-65
2022/05/04 06:36:46;;;;;;;0.00;0.00;;;15.40;61.50;;;;;;4154820;28;20529;-64
2022/05/04 06:39:15;;;;;;;2.17;0.90;;;15.30;61.50;;;;;;4146890;28;20072;-64
2022/05/04 06:41:44;;;;;;;0.55;0.55;;;15.30;60.70;;;;;;4139176;28;21933;-65
2022/05/04 06:44:10;;;;;;;0.05;0.05;;;15.30;61.20;;;;;;4153633;28;20097;-63
2022/05/04 06:46:38;;;;;;;0.00;0.00;;;15.30;61.30;;;;;;4171868;28;20045;-65
2022/05/04 06:49:08;;;;;;;0.00;0.00;;;15.40;61.70;;;;;;4144264;28;20076;-65
2022/05/04 06:51:35;;;;;;;0.00;0.00;;;15.40;61.80;;;;;;4163401;28;20059;-65
2022/05/04 06:54:04;;;;;;;0.10;0.10;;;15.40;61.70;;;;;;4161612;28;20500;-65
2022/05/04 06:56:51;;;;;;;0.00;0.00;;;15.40;62.30;;;;;;4147302;28;20049;-64
2022/05/04 06:59:21;;;;;;;0.00;0.00;;;15.50;62.70;;;;;;4162443;28;20053;-64
2022/05/04 07:01:46;;;;;;;0.00;0.00;;;15.50;62.60;;;;;;4165155;28;20134;-64
2022/05/04 07:04:12;;;;;;;0.00;0.00;;;15.50;62.40;;;;;;4177031;28;20040;-64
2022/05/04 07:06:46;;;;;;;0.00;0.00;;;15.50;62.20;;;;;;4200405;28;20083;-63
2022/05/04 07:09:11;;;;;;;0.00;0.00;;;15.50;62.10;;;;;;4208010;28;20074;-64
2022/05/04 07:11:35;;;;;;;0.35;0.35;;;15.50;62.00;;;;;;4210833;28;20131;-64
2022/05/04 07:13:59;;;;;;;0.00;0.00;;;15.50;61.90;;;;;;4200336;28;20052;-64
2022/05/04 07:16:26;;;;;;;0.00;0.00;;;15.50;61.90;;;;;;4180965;28;20725;-64
2022/05/04 07:18:51;;;;;;;0.00;0.00;;;15.50;61.00;;;;;;4192993;27;20106;-64
2022/05/04 07:21:14;;;;;;;0.00;0.00;;;15.50;61.50;;;;;;4208497;28;20047;-64
2022/05/04 07:23:37;;;;;;;0.45;0.45;;;15.50;61.30;;;;;;4203646;28;20059;-64
2022/05/04 07:26:01;;;;;;;0.00;0.00;;;15.50;61.40;;;;;;4208513;28;20056;-64
2022/05/04 07:28:26;;;;;;;2.08;1.27;;;15.40;61.30;;;;;;4206219;28;20052;-65
2022/05/04 07:30:51;;;;;;;0.00;0.00;;;15.50;61.30;;;;;;4220986;28;20062;-63
2022/05/04 07:33:17;;;;;;;0.05;0.05;;;15.50;60.90;;;;;;4203524;28;20104;-63
2022/05/04 07:35:41;;;;;;;0.00;0.00;;;15.50;60.80;;;;;;4215769;28;20469;-63
2022/05/04 07:38:05;;;;;;;0.00;0.00;;;15.50;61.00;;;;;;4205441;28;20063;-63
2022/05/04 07:43:13;;;;;;;0.00;0.00;;;15.40;60.90;;;;;;4215244;28;20052;-63
2022/05/04 07:45:37;;;;;;;0.20;0.20;;;15.50;60.90;;;;;;4195197;28;20044;-63
2022/05/04 07:48:08;;;;;;;0.00;0.00;;;15.50;60.80;;;;;;4194898;28;20044;-61
2022/05/04 07:50:33;;;;;;;0.00;0.00;;;15.50;60.80;;;;;;4190611;28;20083;-63
2022/05/04 07:53:03;;;;;;;0.03;0.03;;;15.50;60.80;;;;;;4206314;28;20062;-64
2022/05/04 07:55:26;;;;;;;0.00;0.00;;;15.50;60.80;;;;;;4204013;28;20067;-64
2022/05/04 07:57:51;;;;;;;1.10;0.40;;;15.60;60.90;;;;;;4205518;28;20166;-64
2022/05/04 08:05:45;;;;;;;0.20;0.20;;;15.60;60.00;;;;;;4213143;28;20039;-64
2022/05/04 08:08:09;;;;;;;0.00;0.00;;;15.60;60.20;;;;;;4197538;28;20391;-63
2022/05/04 08:10:32;;;;;;;0.30;0.30;;;15.50;60.00;;;;;;4181579;28;20052;-62
2022/05/04 08:12:58;;;;;;;0.22;0.20;;;15.60;59.90;;;;;;4195376;28;20052;-64
2022/05/04 08:15:21;;;;;;;0.00;0.00;;;15.60;59.90;;;;;;4205494;28;20052;-63
2022/05/04 08:17:47;;;;;;;0.00;0.00;;;15.60;59.60;;;;;;4206695;28;20047;-63
2022/05/04 08:20:13;;;;;;;0.00;0.00;;;15.60;59.50;;;;;;4209022;28;20044;-63
2022/05/04 08:22:37;;;;;;;0.00;0.00;;;15.60;59.50;;;;;;4190138;28;20472;-63
2022/05/04 08:25:03;;;;;;;0.00;0.00;;;15.60;59.60;;;;;;4174664;28;20053;-63
2022/05/04 08:27:26;;;;;;;0.00;0.00;;;15.60;59.60;;;;;;4195114;28;20135;-63
2022/05/04 08:29:49;;;;;;;0.00;0.00;;;15.60;59.60;;;;;;4206892;28;20426;-64
2022/05/04 08:32:16;;;;;;;0.00;0.00;;;15.60;60.10;;;;;;4198953;28;20048;-64
2022/05/04 08:34:42;;;;;;;0.00;0.00;;;15.60;59.20;;;;;;4205708;28;20450;-64
2022/05/04 08:37:14;;;;;;;0.00;0.00;;;15.60;59.10;;;;;;4208550;28;20101;-63
2022/05/04 08:39:39;;;;;;;0.00;0.00;;;15.60;58.60;;;;;;4188334;28;20044;-64
2022/05/04 08:42:16;;;;;;;0.05;0.05;;;15.60;58.80;;;;;;4204721;28;20060;-63
2022/05/04 08:44:49;;;;;;;0.00;0.00;;;15.60;59.00;;;;;;4205727;28;20429;-63
2022/05/04 08:47:15;;;;;;;0.00;0.00;;;15.60;58.90;;;;;;4195343;28;20047;-63
2022/05/04 08:49:39;;;;;;;0.00;0.00;;;15.70;59.00;;;;;;4196917;28;20131;-64
2022/05/04 08:52:06;;;;;;;0.55;0.55;;;15.70;58.90;;;;;;4201330;28;20125;-63
2022/05/04 08:54:29;;;;;;;0.00;0.00;;;15.70;59.00;;;;;;4204788;28;20044;-64
2022/05/04 08:56:53;;;;;;;0.00;0.00;;;15.80;59.60;;;;;;4205169;28;20123;-63
2022/05/04 08:59:16;;;;;;;0.00;0.00;;;15.80;58.60;;;;;;4206162;28;20467;-64
2022/05/04 09:01:41;;;;;;;0.30;0.30;;;15.80;57.30;;;;;;4205603;28;20055;-63
2022/05/04 09:04:07;;;;;;;0.00;0.00;;;15.80;57.20;;;;;;4194156;28;20069;-63
2022/05/04 09:06:36;;;;;;;0.47;0.47;;;15.80;57.60;;;;;;4199746;28;20047;-63
2022/05/04 09:09:06;;;;;;;0.00;0.00;;;15.80;57.70;;;;;;4171322;28;20076;-63
2022/05/04 09:11:32;;;;;;;0.00;0.00;;;15.80;57.90;;;;;;4193594;28;20561;-62
2022/05/04 09:14:01;;;;;;;0.00;0.00;;;15.80;58.00;;;;;;4209045;28;20047;-64
2022/05/04 09:16:29;;;;;;;0.00;0.00;;;15.90;58.20;;;;;;4204428;28;20213;-63
2022/05/04 09:18:53;;;;;;;0.00;0.00;;;15.90;58.30;;;;;;4195209;28;20051;-64
2022/05/04 09:21:22;;;;;;;0.00;0.00;;;15.80;58.30;;;;;;4205595;28;20082;-64
2022/05/04 09:23:52;;;;;;;0.77;0.77;;;15.90;58.40;;;;;;4196989;28;20052;-63
2022/05/04 09:26:19;;;;;;;0.20;0.20;;;15.90;58.20;;;;;;4197273;28;20047;-62
2022/05/04 09:28:41;;;;;;;0.10;0.10;;;15.90;58.30;;;;;;4208366;28;20044;-64
2022/05/04 09:31:08;;;;;;;1.10;1.00;;;15.90;58.30;;;;;;4203333;28;20044;-63
2022/05/04 09:33:34;;;;;;;0.00;0.00;;;15.90;58.30;;;;;;4205789;28;20054;-64
2022/05/04 09:36:04;;;;;;;33.13;1.17;;;15.90;58.20;;;;;;4200318;28;20057;-64
2022/05/04 09:47:05;;;;;;;0.00;0.00;;;16.00;57.20;;;;;;4203609;28;20162;-64
2022/05/04 09:49:31;;;;;;;0.00;0.00;;;16.00;57.70;;;;;;4178977;28;20051;-64
2022/05/04 09:51:55;;;;;;;0.00;0.00;;;16.00;57.60;;;;;;4187102;28;20045;-63
2022/05/04 09:54:21;;;;;;;0.00;0.00;;;16.00;57.60;;;;;;4204480;28;20051;-63
2022/05/04 09:56:50;;;;;;;0.00;0.00;;;16.00;57.50;;;;;;4206197;28;20455;-63
2022/05/04 09:59:16;;;;;;;0.00;0.00;;;16.10;57.60;;;;;;4207297;28;20572;-63
2022/05/04 10:01:40;;;;;;;0.00;0.00;;;16.10;57.30;;;;;;4195580;28;20036;-63
2022/05/04 10:04:05;;;;;;;0.00;0.00;;;16.10;57.20;;;;;;4217704;28;20059;-64
2022/05/04 10:06:36;;;;;;;0.00;0.00;;;16.10;57.30;;;;;;4203740;28;20047;-62
2022/05/04 10:09:01;;;;;;;0.00;0.00;;;16.10;57.30;;;;;;4198790;28;20052;-65
2022/05/04 10:11:25;;;;;;;0.00;0.00;;;16.10;57.40;;;;;;4196407;28;20048;-62
2022/05/04 10:13:54;;;;;;;0.00;0.00;;;16.10;57.30;;;;;;4205771;28;20044;-63
2022/05/04 10:16:18;;;;;;;0.00;0.00;;;16.10;57.30;;;;;;4198701;28;20044;-62
2022/05/04 10:18:47;;;;;;;0.00;0.00;;;16.20;57.30;;;;;;4191381;28;20082;-65
2022/05/04 10:21:15;;;;;;;0.10;0.10;;;16.20;57.30;;;;;;4201248;28;20429;-65
2022/05/04 10:23:44;;;;;;;0.00;0.00;;;16.20;57.30;;;;;;4205614;28;20055;-64
2022/05/04 10:26:12;;;;;;;0.00;0.00;;;16.30;57.00;;;;;;4194974;28;20052;-63
2022/05/04 10:28:38;;;;;;;0.00;0.00;;;16.30;56.80;;;;;;4198495;28;20044;-65
2022/05/04 10:31:10;;;;;;;0.00;0.00;;;16.30;56.60;;;;;;4217801;28;20056;-65
2022/05/04 10:33:38;;;;;;;0.00;0.00;;;16.30;56.60;;;;;;4204841;28;20062;-64
2022/05/04 10:36:32;;;;;;;0.00;0.00;;;16.30;56.70;;;;;;4198634;28;20055;-64
2022/05/04 10:38:58;;;;;;;0.00;0.00;;;16.40;56.60;;;;;;4187121;28;20075;-64
2022/05/04 10:41:35;;;;;;;0.00;0.00;;;16.40;56.50;;;;;;4205801;28;20064;-64
2022/05/04 10:44:01;;;;;;;0.00;0.00;;;16.40;56.40;;;;;;4204178;28;20052;-64
2022/05/04 10:46:30;;;;;;;0.10;0.10;;;16.50;56.30;;;;;;4206685;28;20131;-64
2022/05/04 10:48:57;;;;;;;0.00;0.00;;;16.50;56.30;;;;;;4190870;28;20127;-64
2022/05/04 10:51:22;;;;;;;0.00;0.00;;;16.60;56.30;;;;;;4205670;28;20067;-64
2022/05/04 10:53:51;;;;;;;0.00;0.00;;;16.60;55.90;;;;;;4184773;28;20048;-64
2022/05/04 10:56:18;;;;;;;0.05;0.05;;;16.60;55.70;;;;;;4193979;28;20044;-63
2022/05/04 10:58:59;;;;;;;0.00;0.00;;;16.60;55.70;;;;;;4194926;28;20119;-64
2022/05/04 11:01:30;;;;;;;0.15;0.15;;;16.60;55.80;;;;;;4195432;28;20547;-64
2022/05/04 11:04:23;;;;;;;0.00;0.00;;;16.70;55.60;;;;;;4199491;28;20052;-64
2022/05/04 11:06:51;;;;;;;0.00;0.00;;;16.70;55.50;;;;;;4187572;28;20059;-64
2022/05/04 11:09:19;;;;;;;0.00;0.00;;;16.70;55.30;;;;;;4203200;28;20082;-64
2022/05/04 11:11:48;;;;;;;0.00;0.00;;;16.70;55.20;;;;;;4194524;28;20124;-64
2022/05/04 11:14:14;;;;;;;0.00;0.00;;;16.70;55.10;;;;;;4194794;28;20056;-64
2022/05/04 11:16:42;;;;;;;0.00;0.00;;;16.80;55.00;;;;;;4203936;28;20043;-63
2022/05/04 11:19:08;;;;;;;0.45;0.45;;;16.70;54.70;;;;;;4195702;28;20044;-64
2022/05/04 11:21:37;;;;;;;0.13;0.13;;;16.80;54.50;;;;;;4204613;28;20050;-63
2022/05/04 11:24:09;;;;;;;0.00;0.00;;;16.70;54.00;;;;;;4184004;28;20047;-64
2022/05/04 11:26:38;;;;;;;0.00;0.00;;;16.80;54.40;;;;;;4213499;28;20644;-64
2022/05/04 11:29:10;;;;;;;1.45;1.08;;;16.80;53.70;;;;;;4205512;28;20101;-64
2022/05/04 11:31:36;;;;;;;0.25;0.25;;;16.80;54.40;;;;;;4197656;28;20085;-64
2022/05/04 11:34:05;;;;;;;0.00;0.00;;;16.80;54.30;;;;;;4210780;28;20123;-63
2022/05/04 11:36:30;;;;;;;0.03;0.03;;;16.80;54.50;;;;;;4203567;28;20051;-64
2022/05/04 11:38:56;;;;;;;0.00;0.00;;;16.70;54.70;;;;;;4199302;28;20043;-63
2022/05/04 11:41:20;;;;;;;0.00;0.00;;;16.70;54.60;;;;;;4217682;28;20055;-64
2022/05/04 11:43:44;;;;;;;0.00;0.00;;;16.80;54.50;;;;;;4209966;28;20047;-64
2022/05/04 11:46:13;;;;;;;0.00;0.00;;;16.80;54.50;;;;;;4202059;28;20097;-64
2022/05/04 11:48:43;;;;;;;0.00;0.00;;;16.80;54.70;;;;;;4212676;28;20046;-64
2022/05/04 11:51:09;;;;;;;0.00;0.00;;;16.80;54.70;;;;;;4209812;28;20058;-64
2022/05/04 11:53:34;;;;;;;0.00;0.00;;;16.90;54.70;;;;;;4212193;28;20055;-63
2022/05/04 11:56:00;;;;;;;0.00;0.00;;;17.00;54.80;;;;;;4210246;28;20046;-62
2022/05/04 11:58:27;;;;;;;0.00;0.00;;;17.00;54.70;;;;;;4199298;28;20173;-63
2022/05/04 12:00:51;;;;;;;0.00;0.00;;;17.00;54.80;;;;;;4209073;28;20052;-64
2022/05/04 12:03:16;;;;;;;0.00;0.00;;;17.00;54.80;;;;;;4205883;28;20439;-64
2022/05/04 12:05:42;;;;;;;0.00;0.00;;;17.00;54.80;;;;;;4177505;28;20048;-64
2022/05/04 12:08:09;;;;;;;0.00;0.00;;;17.10;54.70;;;;;;4218898;28;20089;-64
2022/05/04 12:10:32;;;;;;;0.00;0.00;;;17.10;54.40;;;;;;4184743;28;20048;-65
2022/05/04 12:13:02;;;;;;;0.00;0.00;;;17.10;54.70;;;;;;4200103;28;20055;-65
2022/05/04 12:15:28;;;;;;;0.00;0.00;;;17.20;54.60;;;;;;4181363;28;20087;-64
2022/05/04 12:17:59;;;;;;;0.00;0.00;;;17.20;54.50;;;;;;4201358;28;20083;-64
2022/05/04 12:20:25;;;;;;;0.00;0.00;;;17.20;54.60;;;;;;4189953;28;20064;-64
2022/05/04 12:22:54;;;;;;;0.10;0.10;;;17.20;54.60;;;;;;4197683;28;20039;-64
2022/05/04 12:25:20;;;;;;;0.00;0.00;;;17.30;54.60;;;;;;4202487;28;20051;-64
2022/05/04 12:27:46;;;;;;;0.00;0.00;;;17.30;54.60;;;;;;4204982;28;20541;-64
2022/05/04 12:33:10;;;;;;;0.43;0.43;;;17.30;54.70;;;;;;4183003;28;20099;-65
2022/05/04 12:35:35;;;;;;;0.47;0.47;;;17.30;54.70;;;;;;4191159;28;20040;-65
2022/05/04 12:38:00;;;;;;;0.28;0.28;;;17.40;54.70;;;;;;4192467;28;20072;-65
2022/05/04 12:40:23;;;;;;;0.00;0.00;;;17.40;54.30;;;;;;4195488;28;20060;-65
2022/05/04 12:42:45;;;;;;;0.20;0.20;;;17.40;54.60;;;;;;4194106;28;20048;-65
2022/05/04 12:45:09;;;;;;;0.00;0.00;;;17.40;54.80;;;;;;4192281;28;20036;-65
2022/05/04 12:47:34;;;;;;;0.00;0.00;;;17.50;54.00;;;;;;4206775;28;20048;-65
2022/05/04 12:49:59;;;;;;;0.00;0.00;;;17.50;54.40;;;;;;4191811;28;20079;-64
2022/05/04 12:52:23;;;;;;;0.10;0.10;;;17.60;54.10;;;;;;4193102;28;20044;-64
2022/05/04 12:54:47;;;;;;;0.00;0.00;;;17.50;54.30;;;;;;4199809;28;20044;-66
2022/05/04 12:57:09;;;;;;;0.00;0.00;;;17.60;54.60;;;;;;4198910;28;20488;-65
2022/05/04 12:59:38;;;;;;;0.20;0.20;;;17.60;54.30;;;;;;4197471;28;20041;-65
2022/05/04 13:02:05;;;;;;;0.00;0.00;;;17.60;53.90;;;;;;4209068;28;20047;-64
2022/05/04 13:04:31;;;;;;;0.00;0.00;;;17.60;53.30;;;;;;4210317;28;20105;-64
2022/05/04 13:06:56;;;;;;;0.00;0.00;;;17.60;54.30;;;;;;4191393;28;20048;-64
2022/05/04 13:09:19;;;;;;;0.40;0.40;;;17.60;54.80;;;;;;4198976;28;20122;-63
2022/05/04 13:11:44;;;;;;;0.00;0.00;;;17.60;54.80;;;;;;4199418;28;20111;-65
2022/05/04 13:14:07;;;;;;;0.00;0.00;;;17.60;54.40;;;;;;4208463;28;20055;-64
2022/05/04 13:16:30;;;;;;;0.88;0.85;;;17.60;54.60;;;;;;4205096;28;20231;-65
2022/05/04 13:18:53;;;;;;;0.00;0.00;;;17.70;54.00;;;;;;4209902;28;20048;-64
2022/05/04 13:21:18;;;;;;;0.00;0.00;;;17.70;54.00;;;;;;4209172;28;20054;-65
2022/05/04 13:23:44;;;;;;;0.00;0.00;;;17.70;54.40;;;;;;4191294;28;20036;-65
2022/05/04 13:26:08;;;;;;;0.00;0.00;;;17.70;54.10;;;;;;4167450;28;20048;-63